KMSV/MSV METAR and TAF weather

Enter ICAO airport designator
Station Type Date Time Source
KMSV METAR 2019/02/16 06:56 UTC NOAA

KMSV 160656Z AUTO 31014G18KT 10SM CLR M02/M08 A2975 RMK AO2 SLP085 T10221078 FZRANO


Station Type Date Time Source
KMSV Decoded METAR 2019/02/16 06:56 UTC NOAA

Monticello, Sullivan County International Airport, NY, United States (KMSV) 41-42N 074-48W
Feb 16, 2019 - 01:56 AM EST / 2019.02.16 0656 UTC
Wind: from the NW (310 degrees) at 16 MPH (14 KT) gusting to 21 MPH (18 KT):0
Visibility: 10 mile(s):0
Sky conditions: clear
Temperature: 28.0 F (-2.2 C)
Windchill: 15 F (-9 C):1
Dew Point: 18.0 F (-7.8 C)
Relative Humidity: 65%
Pressure (altimeter): 29.75 in. Hg (1007 hPa)
ob: KMSV 160656Z AUTO 31014G18KT 10SM CLR M02/M08 A2975 RMK AO2 SLP085 T10221078 FZRANO
cycle: 7

Station Type Date Time Source
KMSV TAF UTC NOAA

Error!


Example: see airport list